createdAt,value
2023-05-11T00:00:48.848Z,99480.16
2023-05-11T00:02:22.036Z,99475.84
2023-05-11T00:03:57.261Z,99470.72
2023-05-11T00:05:30.523Z,99475.31
2023-05-11T00:07:02.818Z,99468.41
2023-05-11T00:08:36.098Z,99473.94
2023-05-11T00:10:10.329Z,99469.00
2023-05-11T00:11:43.644Z,99464.88
2023-05-11T00:13:17.076Z,99471.88
2023-05-11T00:14:50.340Z,99476.38
2023-05-11T00:16:23.603Z,99469.47
2023-05-11T00:17:55.994Z,99474.09
2023-05-11T00:19:31.663Z,99470.72
2023-05-11T00:21:03.918Z,99466.63
2023-05-11T00:22:37.216Z,99467.66
2023-05-11T00:24:10.634Z,99474.00
2023-05-11T00:25:43.870Z,99470.59
2023-05-11T00:27:16.088Z,99472.56
2023-05-11T00:28:49.321Z,99475.44
2023-05-11T00:30:21.815Z,99481.75
2023-05-11T00:31:56.692Z,99478.44
2023-05-11T00:33:30.190Z,99475.06
2023-05-11T00:35:04.944Z,99480.50
2023-05-11T00:36:41.253Z,99467.31
2023-05-11T00:38:15.061Z,99474.50
2023-05-11T00:39:48.337Z,99475.53
2023-05-11T00:41:21.689Z,99478.41
2023-05-11T00:42:55.089Z,99482.94
2023-05-11T00:44:28.431Z,99480.28
2023-05-11T00:46:02.247Z,99482.88
2023-05-11T00:47:35.460Z,99481.06
2023-05-11T00:49:09.869Z,99486.41
2023-05-11T00:50:43.620Z,99471.31
2023-05-11T00:52:17.278Z,99479.19
2023-05-11T00:53:51.077Z,99495.97
2023-05-11T00:55:23.842Z,99484.38
2023-05-11T00:56:57.012Z,99489.78
2023-05-11T00:58:31.202Z,99491.63
2023-05-11T01:00:04.278Z,99486.75
2023-05-11T01:01:40.260Z,99492.69
2023-05-11T01:03:15.203Z,99492.69
2023-05-11T01:04:48.547Z,99479.94
2023-05-11T01:06:33.161Z,99480.91
2023-05-11T01:08:13.824Z,99489.75
2023-05-11T01:09:56.940Z,99480.13
2023-05-11T01:11:38.862Z,99479.28
2023-05-11T01:13:19.013Z,99487.31
2023-05-11T01:14:58.415Z,99487.53
2023-05-11T01:16:36.392Z,99483.38
2023-05-11T01:18:16.346Z,99485.28
2023-05-11T01:19:56.853Z,99482.84
2023-05-11T01:21:33.871Z,99483.88
2023-05-11T01:23:25.122Z,99492.72
2023-05-11T01:25:12.357Z,99486.66
2023-05-11T01:27:03.512Z,99483.31
2023-05-11T01:29:11.788Z,99489.66
2023-05-11T01:30:50.052Z,99491.38
2023-05-11T01:32:27.049Z,99484.44
2023-05-11T01:34:03.931Z,99484.25
2023-05-11T01:35:41.711Z,99486.00
2023-05-11T01:37:18.207Z,99490.25
2023-05-11T01:38:53.577Z,99489.25
2023-05-11T01:40:29.335Z,99484.66
2023-05-11T01:42:08.148Z,99484.56
2023-05-11T01:43:44.417Z,99488.19
2023-05-11T01:45:18.976Z,99495.44
2023-05-11T01:46:54.539Z,99494.81
2023-05-11T01:48:32.001Z,99490.75
2023-05-11T01:50:07.743Z,99484.91
2023-05-11T01:51:43.417Z,99490.34
2023-05-11T01:53:18.768Z,99483.53
2023-05-11T01:54:53.219Z,99489.81
2023-05-11T01:56:28.190Z,99483.97
2023-05-11T01:58:01.742Z,99498.22
2023-05-11T01:59:36.766Z,99503.66
2023-05-11T02:01:09.939Z,99503.94
2023-05-11T02:02:47.654Z,99489.81
2023-05-11T02:04:22.465Z,99499.59
2023-05-11T02:05:57.127Z,99493.53
2023-05-11T02:07:33.302Z,99503.41
2023-05-11T02:09:08.850Z,99492.13
2023-05-11T02:10:43.130Z,99500.84
2023-05-11T02:12:19.268Z,99498.31
2023-05-11T02:13:54.505Z,99494.69
2023-05-11T02:15:29.662Z,99497.28
2023-05-11T02:17:03.581Z,99498.13
2023-05-11T02:18:40.950Z,99494.50
2023-05-11T02:20:15.274Z,99490.97
2023-05-11T02:21:51.372Z,99494.50
2023-05-11T02:23:27.769Z,99489.13
2023-05-11T02:25:01.682Z,99480.22
2023-05-11T02:26:35.266Z,99488.19
2023-05-11T02:28:09.170Z,99482.06
2023-05-11T02:29:42.327Z,99479.41
2023-05-11T02:31:20.735Z,99475.88
2023-05-11T02:32:57.815Z,99463.47
2023-05-11T02:34:42.451Z,99470.44
2023-05-11T02:36:20.764Z,99473.91
2023-05-11T02:37:59.105Z,99471.16
2023-05-11T02:39:37.259Z,99472.88
2023-05-11T02:41:14.633Z,99472.63
2023-05-11T02:42:54.093Z,99472.50
2023-05-11T02:44:32.381Z,99488.19
2023-05-11T02:46:10.064Z,99481.09
2023-05-11T02:47:47.298Z,99479.19
2023-05-11T02:49:30.561Z,99483.38
2023-05-11T02:51:08.000Z,99478.88
2023-05-11T02:52:48.644Z,99483.06
2023-05-11T02:54:23.564Z,99477.00
2023-05-11T02:56:02.466Z,99481.19
2023-05-11T02:57:38.320Z,99490.84
2023-05-11T02:59:14.195Z,99488.91
2023-05-11T03:00:48.068Z,99490.53
2023-05-11T03:02:21.921Z,99495.72
2023-05-11T03:03:54.622Z,99500.00
2023-05-11T03:05:30.040Z,99495.81
2023-05-11T03:07:04.563Z,99508.41
2023-05-11T03:08:37.714Z,99501.56
2023-05-11T03:10:11.694Z,99493.69
2023-05-11T03:11:49.148Z,99505.13
2023-05-11T03:13:24.894Z,99500.00
2023-05-11T03:15:01.502Z,99502.00
2023-05-11T03:16:38.580Z,99504.03
2023-05-11T03:18:13.712Z,99505.84
2023-05-11T03:19:46.268Z,99506.09
2023-05-11T03:21:21.976Z,99504.38
2023-05-11T03:22:57.732Z,99509.00
2023-05-11T03:24:32.181Z,99507.47
2023-05-11T03:26:04.942Z,99505.00
2023-05-11T03:27:39.819Z,99507.72
2023-05-11T03:29:15.820Z,99499.94
2023-05-11T03:30:50.990Z,99501.66
2023-05-11T03:32:24.726Z,99507.72
2023-05-11T03:33:58.763Z,99504.88
2023-05-11T03:35:36.113Z,99513.53
2023-05-11T03:37:13.900Z,99499.22
2023-05-11T03:38:52.805Z,99503.34
2023-05-11T03:40:27.965Z,99497.88
2023-05-11T03:42:04.203Z,99503.94
2023-05-11T03:43:41.262Z,99503.50
2023-05-11T03:45:17.682Z,99508.47
2023-05-11T03:46:50.631Z,99500.59
2023-05-11T03:48:25.169Z,99509.19
2023-05-11T03:49:59.422Z,99504.50
2023-05-11T03:51:33.319Z,99506.84
2023-05-11T03:53:07.499Z,99504.81
2023-05-11T03:54:42.867Z,99502.75
2023-05-11T03:56:17.942Z,99496.34
2023-05-11T03:57:52.186Z,99500.34
2023-05-11T03:59:25.231Z,99500.63
2023-05-11T04:00:58.662Z,99502.06
2023-05-11T04:02:32.125Z,99507.06
2023-05-11T04:04:04.617Z,99502.31
2023-05-11T04:05:38.154Z,99496.75
2023-05-11T04:07:14.793Z,99502.63
2023-05-11T04:08:48.878Z,99507.72
2023-05-11T04:10:22.715Z,99498.56
2023-05-11T04:11:56.040Z,99495.63
2023-05-11T04:13:29.337Z,99491.72
2023-05-11T04:15:01.900Z,99494.84
2023-05-11T04:16:35.148Z,99504.03
2023-05-11T04:18:07.735Z,99494.72
2023-05-11T04:19:41.086Z,99492.53
2023-05-11T04:21:14.332Z,99491.53
2023-05-11T04:22:48.105Z,99495.72
2023-05-11T04:24:21.523Z,99502.63
2023-05-11T04:25:56.823Z,99500.31
2023-05-11T04:27:30.172Z,99499.84
2023-05-11T04:29:03.930Z,99505.50
2023-05-11T04:30:37.472Z,99487.25
2023-05-11T04:32:10.614Z,99505.00
2023-05-11T04:33:43.941Z,99502.63
2023-05-11T04:35:18.714Z,99503.97
2023-05-11T04:36:52.561Z,99508.94
2023-05-11T04:38:26.126Z,99506.22
2023-05-11T04:40:00.279Z,99502.25
2023-05-11T04:41:34.971Z,99506.72
2023-05-11T04:43:09.272Z,99500.06
2023-05-11T04:44:42.533Z,99507.31
2023-05-11T04:46:16.019Z,99505.44
2023-05-11T04:47:49.363Z,99501.56
2023-05-11T04:49:23.077Z,99493.06
2023-05-11T04:50:56.883Z,99498.06
2023-05-11T04:52:34.846Z,99498.03
2023-05-11T04:54:08.084Z,99505.81
2023-05-11T04:55:40.796Z,99496.75
2023-05-11T04:57:16.410Z,99494.81
2023-05-11T04:58:49.936Z,99499.06
2023-05-11T05:00:23.425Z,99504.88
2023-05-11T05:01:56.990Z,99503.03
2023-05-11T05:03:30.170Z,99497.72
2023-05-11T05:05:03.690Z,99486.91
2023-05-11T05:06:38.306Z,99494.47
2023-05-11T05:08:11.845Z,99489.94
2023-05-11T05:09:45.535Z,99490.94
2023-05-11T05:11:21.841Z,99491.66
2023-05-11T05:12:56.469Z,99498.78
2023-05-11T05:14:29.968Z,99480.88
2023-05-11T05:16:03.217Z,99494.94
2023-05-11T05:17:36.823Z,99493.56
2023-05-11T05:19:12.821Z,99489.91
2023-05-11T05:20:46.888Z,99494.81
2023-05-11T05:22:20.070Z,99486.31
2023-05-11T05:23:53.335Z,99486.19
2023-05-11T05:25:26.457Z,99490.66
2023-05-11T05:27:00.582Z,99489.88
2023-05-11T05:28:35.983Z,99495.06
2023-05-11T05:30:10.193Z,99491.44
2023-05-11T05:31:43.297Z,99494.41
2023-05-11T05:33:16.806Z,99483.41
2023-05-11T05:34:50.383Z,99486.06
2023-05-11T05:36:23.841Z,99484.28
2023-05-11T05:37:56.931Z,99492.34
2023-05-11T05:39:30.298Z,99496.88
2023-05-11T05:41:02.665Z,99490.53
2023-05-11T05:42:39.295Z,99490.47
2023-05-11T05:44:15.242Z,99497.03
2023-05-11T05:45:49.508Z,99494.66
2023-05-11T05:47:22.875Z,99500.47
2023-05-11T05:48:56.920Z,99500.63
2023-05-11T05:50:30.235Z,99497.03
2023-05-11T05:52:03.972Z,99487.91
2023-05-11T05:53:37.621Z,99491.84
2023-05-11T05:55:11.356Z,99485.53
2023-05-11T05:56:45.970Z,99491.44
2023-05-11T05:58:19.609Z,99486.63
2023-05-11T05:59:54.136Z,99493.88
2023-05-11T06:01:27.462Z,99496.63
2023-05-11T06:03:00.981Z,99501.44
2023-05-11T06:04:34.640Z,99502.50
2023-05-11T06:06:08.281Z,99499.69
2023-05-11T06:07:41.589Z,99502.41
2023-05-11T06:09:14.764Z,99494.31
2023-05-11T06:10:48.881Z,99499.69
2023-05-11T06:12:22.021Z,99500.94
2023-05-11T06:13:58.042Z,99505.09
2023-05-11T06:15:32.865Z,99502.28
2023-05-11T06:17:13.930Z,99503.38
2023-05-11T06:18:48.324Z,99495.28
2023-05-11T06:20:22.235Z,99505.06
2023-05-11T06:21:55.782Z,99497.16
2023-05-11T06:23:29.626Z,99500.31
2023-05-11T06:25:03.776Z,99490.22
2023-05-11T06:26:37.007Z,99498.59
2023-05-11T06:28:10.789Z,99495.44
2023-05-11T06:29:44.948Z,99499.44
2023-05-11T06:31:19.916Z,99499.69
2023-05-11T06:32:54.995Z,99498.22
2023-05-11T06:34:28.320Z,99498.47
2023-05-11T06:36:05.175Z,99493.41
2023-05-11T06:37:38.712Z,99498.00
2023-05-11T06:39:12.234Z,99494.91
2023-05-11T06:40:45.821Z,99501.88
2023-05-11T06:42:19.753Z,99492.84
2023-05-11T06:43:54.133Z,99484.53
2023-05-11T06:45:33.209Z,99493.56
2023-05-11T06:47:08.537Z,99493.78
2023-05-11T06:48:42.038Z,99488.91
2023-05-11T06:50:15.149Z,99490.84
2023-05-11T06:51:48.872Z,99485.34
2023-05-11T06:53:22.036Z,99489.25
2023-05-11T06:54:56.389Z,99486.69
2023-05-11T06:56:31.951Z,99489.09
2023-05-11T06:58:05.221Z,99488.41
2023-05-11T06:59:38.347Z,99492.09
2023-05-11T07:01:13.139Z,99484.50
2023-05-11T07:02:47.735Z,99477.75
2023-05-11T07:04:21.253Z,99487.19
2023-05-11T07:05:54.428Z,99487.91
2023-05-11T07:07:27.839Z,99478.84
2023-05-11T07:09:01.229Z,99487.69
2023-05-11T07:10:33.710Z,99486.66
2023-05-11T07:12:07.168Z,99483.91
2023-05-11T07:13:41.253Z,99487.59
2023-05-11T07:15:14.471Z,99485.19
2023-05-11T07:16:48.201Z,99479.34
2023-05-11T07:18:22.762Z,99477.69
2023-05-11T07:19:56.465Z,99491.88
2023-05-11T07:21:30.040Z,99483.66
2023-05-11T07:23:03.726Z,99482.59
2023-05-11T07:24:38.007Z,99480.50
2023-05-11T07:26:11.592Z,99486.84
2023-05-11T07:27:44.662Z,99486.13
2023-05-11T07:29:18.506Z,99481.44
2023-05-11T07:30:51.583Z,99482.72
2023-05-11T07:32:25.002Z,99478.25
2023-05-11T07:33:59.501Z,99474.59
2023-05-11T07:35:32.956Z,99481.81
2023-05-11T07:37:06.096Z,99472.63
2023-05-11T07:38:39.715Z,99481.97
2023-05-11T07:40:13.349Z,99476.84
2023-05-11T07:41:47.370Z,99481.78
2023-05-11T07:43:20.584Z,99481.84
2023-05-11T07:44:53.998Z,99487.56
2023-05-11T07:46:27.180Z,99474.91
2023-05-11T07:48:00.677Z,99472.56
2023-05-11T07:49:43.003Z,99473.28
2023-05-11T07:51:17.725Z,99483.38
2023-05-11T07:52:50.860Z,99468.75
2023-05-11T07:54:24.211Z,99479.16
2023-05-11T07:55:59.698Z,99484.50
2023-05-11T07:57:33.211Z,99476.41
2023-05-11T07:59:06.307Z,99466.56
2023-05-11T08:00:39.768Z,99472.53
2023-05-11T08:02:13.565Z,99477.63
2023-05-11T08:03:47.787Z,99490.59
2023-05-11T08:05:22.638Z,99477.84
2023-05-11T08:06:56.185Z,99478.09
2023-05-11T08:08:30.289Z,99482.59
2023-05-11T08:10:03.813Z,99474.75
2023-05-11T08:11:37.166Z,99477.66
2023-05-11T08:13:10.499Z,99470.66
2023-05-11T08:14:44.240Z,99478.28
2023-05-11T08:16:18.305Z,99474.13
2023-05-11T08:17:51.796Z,99476.56
2023-05-11T08:19:25.126Z,99475.81
2023-05-11T08:20:59.637Z,99469.97
2023-05-11T08:22:32.961Z,99464.31
2023-05-11T08:24:06.894Z,99466.75
2023-05-11T08:25:40.191Z,99484.09
2023-05-11T08:27:13.317Z,99483.59
2023-05-11T08:28:46.754Z,99460.00
2023-05-11T08:30:20.502Z,99480.13
2023-05-11T08:31:53.887Z,99476.19
2023-05-11T08:35:04.985Z,99474.59
2023-05-11T08:36:39.877Z,99468.44
2023-05-11T08:38:13.305Z,99473.75
2023-05-11T08:39:47.932Z,99472.53
2023-05-11T08:41:21.764Z,99463.56
2023-05-11T08:42:57.177Z,99472.91
2023-05-11T08:44:31.575Z,99476.41
2023-05-11T08:46:07.509Z,99460.22
2023-05-11T08:47:41.159Z,99463.56
2023-05-11T08:49:14.660Z,99470.22
2023-05-11T08:50:48.613Z,99472.78
2023-05-11T08:52:23.142Z,99464.28
2023-05-11T08:53:57.902Z,99469.16
2023-05-11T08:55:34.122Z,99471.00
2023-05-11T08:57:08.379Z,99466.59
2023-05-11T08:58:43.161Z,99468.44
2023-05-11T09:00:17.859Z,99451.88
2023-05-11T09:01:52.593Z,99454.84
2023-05-11T09:03:26.598Z,99451.59
2023-05-11T09:05:04.190Z,99449.94
2023-05-11T09:06:39.746Z,99455.06
2023-05-11T09:08:15.713Z,99452.66
2023-05-11T09:09:49.245Z,99465.00
2023-05-11T09:11:23.114Z,99448.63
2023-05-11T09:12:56.479Z,99459.91
2023-05-11T09:14:29.827Z,99456.72
2023-05-11T09:16:03.132Z,99454.34
2023-05-11T09:17:36.337Z,99457.09
2023-05-11T09:19:15.901Z,99458.84
2023-05-11T09:20:51.994Z,99457.19
2023-05-11T09:22:24.547Z,99453.16
2023-05-11T09:24:00.822Z,99453.06
2023-05-11T09:25:35.249Z,99438.84
2023-05-11T09:27:09.909Z,99454.69
2023-05-11T09:29:02.337Z,99445.09
2023-05-11T09:30:36.801Z,99450.59
2023-05-11T09:32:10.175Z,99444.34
2023-05-11T09:33:43.265Z,99445.47
2023-05-11T09:35:28.667Z,99443.16
2023-05-11T09:37:02.010Z,99444.34
2023-05-11T09:38:35.693Z,99453.94
2023-05-11T09:41:48.724Z,99445.81
2023-05-11T09:43:24.903Z,99429.34
2023-05-11T09:44:58.580Z,99443.69
2023-05-11T09:46:31.767Z,99429.81
2023-05-11T09:48:05.464Z,99447.44
2023-05-11T09:49:38.630Z,99446.41
2023-05-11T09:51:12.120Z,99439.81
2023-05-11T09:52:52.045Z,99439.81
2023-05-11T09:54:26.285Z,99434.59
2023-05-11T09:56:01.360Z,99427.03
2023-05-11T09:57:35.078Z,99427.88
2023-05-11T09:59:08.172Z,99428.66
2023-05-11T10:00:51.010Z,99434.53
2023-05-11T10:02:26.586Z,99428.28
2023-05-11T10:04:21.499Z,99422.03
2023-05-11T10:06:00.704Z,99424.34
2023-05-11T10:09:10.773Z,99428.91
2023-05-11T10:10:44.014Z,99415.72
2023-05-11T10:12:21.282Z,99427.97
2023-05-11T10:13:54.936Z,99419.56
2023-05-11T10:15:30.506Z,99425.94
2023-05-11T10:17:05.458Z,99408.94
2023-05-11T10:18:40.470Z,99414.97
2023-05-11T10:20:14.354Z,99416.44
2023-05-11T10:21:47.888Z,99428.19
2023-05-11T10:23:22.167Z,99417.19
2023-05-11T10:24:55.724Z,99418.41
2023-05-11T10:26:31.731Z,99419.34
2023-05-11T10:28:06.933Z,99422.81
2023-05-11T10:29:40.367Z,99414.94
2023-05-11T10:31:15.080Z,99419.84
2023-05-11T10:32:48.552Z,99423.66
2023-05-11T10:34:23.694Z,99418.13
2023-05-11T10:35:58.315Z,99409.78
2023-05-11T10:37:31.615Z,99418.59
2023-05-11T10:39:05.503Z,99417.97
2023-05-11T10:40:41.766Z,99413.34
2023-05-11T10:42:36.399Z,99413.97
2023-05-11T10:44:30.619Z,99420.34
2023-05-11T10:46:16.915Z,99412.53
2023-05-11T10:48:17.277Z,99417.19
2023-05-11T10:50:15.962Z,99426.84
2023-05-11T10:52:18.902Z,99423.41
2023-05-11T10:54:04.744Z,99418.91
2023-05-11T10:55:58.772Z,99406.09
2023-05-11T10:57:44.309Z,99410.69
2023-05-11T11:00:04.784Z,99425.09
2023-05-11T11:01:43.590Z,99414.56
2023-05-11T11:03:17.084Z,99410.81
2023-05-11T11:04:52.178Z,99409.69
2023-05-11T11:06:25.962Z,99415.06
2023-05-11T11:08:00.535Z,99412.91
2023-05-11T11:09:54.138Z,99407.78
2023-05-11T11:11:32.252Z,99410.72
2023-05-11T11:13:07.674Z,99408.19
2023-05-11T11:14:56.104Z,99405.13
2023-05-11T11:16:29.666Z,99405.34
2023-05-11T11:18:22.625Z,99399.72
2023-05-11T11:19:56.167Z,99402.75
2023-05-11T11:21:42.300Z,99403.66
2023-05-11T11:23:42.366Z,99398.25
2023-05-11T11:25:17.700Z,99397.28
2023-05-11T11:26:50.565Z,99393.59
2023-05-11T11:28:23.901Z,99396.25
2023-05-11T11:30:19.783Z,99383.53
2023-05-11T11:31:53.401Z,99378.69
2023-05-11T11:33:35.446Z,99381.84
2023-05-11T11:35:47.463Z,99388.22
2023-05-11T11:37:22.344Z,99391.56
2023-05-11T11:38:59.557Z,99390.94
2023-05-11T11:40:47.131Z,99380.16
2023-05-11T11:42:39.054Z,99384.56
2023-05-11T11:44:22.372Z,99387.97
2023-05-11T11:45:56.655Z,99382.34
2023-05-11T11:47:30.402Z,99378.06
2023-05-11T11:49:11.414Z,99371.81
2023-05-11T11:50:47.958Z,99383.09
2023-05-11T11:52:34.867Z,99378.81
2023-05-11T11:54:09.153Z,99382.84
2023-05-11T11:55:50.192Z,99368.56
2023-05-11T11:57:46.752Z,99360.34
2023-05-11T11:59:20.303Z,99379.41
2023-05-11T12:00:53.063Z,99366.22
2023-05-11T12:02:28.615Z,99361.56
2023-05-11T12:04:25.602Z,99377.72
2023-05-11T12:06:02.939Z,99373.78
2023-05-11T12:07:37.036Z,99371.84
2023-05-11T12:09:09.361Z,99369.91
2023-05-11T12:10:42.899Z,99365.59
2023-05-11T12:12:19.950Z,99364.78
2023-05-11T12:13:53.135Z,99360.34
2023-05-11T12:15:27.382Z,99345.94
2023-05-11T12:17:13.564Z,99361.31
2023-05-11T12:18:53.846Z,99346.50
2023-05-11T12:20:28.463Z,99353.38
2023-05-11T12:22:02.114Z,99358.84
2023-05-11T12:23:36.020Z,99352.00
2023-05-11T12:25:11.572Z,99350.53
2023-05-11T12:26:44.777Z,99349.69
2023-05-11T12:28:21.081Z,99348.09
2023-05-11T12:29:54.222Z,99352.88
2023-05-11T12:31:27.978Z,99347.88
2023-05-11T12:33:04.519Z,99340.00
2023-05-11T12:34:37.834Z,99338.00
2023-05-11T12:36:15.846Z,99347.25
2023-05-11T12:37:49.658Z,99341.13
2023-05-11T12:39:24.027Z,99340.28
2023-05-11T12:40:57.239Z,99331.88
2023-05-11T12:42:30.305Z,99332.19
2023-05-11T12:44:03.970Z,99324.13
2023-05-11T12:45:37.298Z,99331.22
2023-05-11T12:47:12.228Z,99329.63
2023-05-11T12:48:46.510Z,99331.63
2023-05-11T12:50:21.313Z,99332.63
2023-05-11T12:52:04.068Z,99329.88
2023-05-11T12:53:37.628Z,99322.41
2023-05-11T12:55:11.719Z,99321.16
2023-05-11T12:56:49.468Z,99310.41
2023-05-11T12:58:22.543Z,99311.66
2023-05-11T13:00:14.012Z,99310.69
2023-05-11T13:01:47.196Z,99315.09
2023-05-11T13:03:23.786Z,99309.72
2023-05-11T13:04:57.176Z,99308.13
2023-05-11T13:06:30.925Z,99307.50
2023-05-11T13:08:06.756Z,99307.25
2023-05-11T13:09:40.796Z,99306.78
2023-05-11T13:11:22.415Z,99292.94
2023-05-11T13:12:56.262Z,99307.16
2023-05-11T13:14:32.468Z,99308.97
2023-05-11T13:16:06.466Z,99307.03
2023-05-11T13:17:42.612Z,99304.31
2023-05-11T13:19:15.013Z,99294.78
2023-05-11T13:20:48.710Z,99302.13
2023-05-11T13:22:22.285Z,99294.28
2023-05-11T13:23:56.923Z,99293.56
2023-05-11T13:25:30.262Z,99292.59
2023-05-11T13:27:03.390Z,99294.91
2023-05-11T13:28:36.752Z,99285.25
2023-05-11T13:30:11.467Z,99294.06
2023-05-11T13:31:45.474Z,99298.31
2023-05-11T13:33:18.665Z,99281.34
2023-05-11T13:34:52.248Z,99299.94
2023-05-11T13:36:25.406Z,99285.97
2023-05-11T13:38:00.167Z,99287.97
2023-05-11T13:39:34.604Z,99290.66
2023-05-11T13:41:08.195Z,99289.19
2023-05-11T13:42:42.317Z,99296.75
2023-05-11T13:44:15.479Z,99283.53
2023-05-11T13:45:48.612Z,99287.94
2023-05-11T13:47:22.324Z,99282.44
2023-05-11T13:48:55.873Z,99291.34
2023-05-11T13:50:29.039Z,99284.28
2023-05-11T13:52:02.191Z,99286.72
2023-05-11T13:53:35.604Z,99287.44
2023-05-11T13:55:10.843Z,99292.22
2023-05-11T13:56:44.082Z,99285.84
2023-05-11T13:58:17.944Z,99291.13
2023-05-11T13:59:51.886Z,99293.06
2023-05-11T14:01:26.523Z,99290.25
2023-05-11T14:03:00.662Z,99288.44
2023-05-11T14:04:33.832Z,99287.09
2023-05-11T14:06:07.910Z,99294.69
2023-05-11T14:07:46.922Z,99294.81
2023-05-11T14:09:20.809Z,99298.94
2023-05-11T14:10:55.302Z,99289.59
2023-05-11T14:12:28.727Z,99274.66
2023-05-11T14:14:01.968Z,99290.56
2023-05-11T14:15:37.001Z,99289.41
2023-05-11T14:17:12.179Z,99293.97
2023-05-11T14:18:45.796Z,99279.06
2023-05-11T14:20:19.018Z,99285.00
2023-05-11T14:21:52.297Z,99286.66
2023-05-11T14:23:25.944Z,99289.84
2023-05-11T14:24:59.313Z,99294.13
2023-05-11T14:26:33.775Z,99291.53
2023-05-11T14:28:06.958Z,99296.38
2023-05-11T14:29:42.544Z,99287.84
2023-05-11T14:31:17.410Z,99294.91
2023-05-11T14:32:50.824Z,99288.91
2023-05-11T14:34:24.139Z,99285.47
2023-05-11T14:35:57.243Z,99289.28
2023-05-11T14:37:30.704Z,99294.28
2023-05-11T14:39:04.163Z,99295.28
2023-05-11T14:40:37.702Z,99292.56
2023-05-11T14:42:12.177Z,99296.91
2023-05-11T14:43:45.869Z,99290.78
2023-05-11T14:45:19.209Z,99285.28
2023-05-11T14:46:52.743Z,99284.91
2023-05-11T14:48:25.859Z,99287.31
2023-05-11T14:49:59.191Z,99289.50
2023-05-11T14:51:32.314Z,99287.97
2023-05-11T14:53:07.170Z,99286.47
2023-05-11T14:54:40.313Z,99292.38
2023-05-11T14:56:14.193Z,99288.03
2023-05-11T14:57:48.895Z,99289.44
2023-05-11T14:59:24.408Z,99293.78
2023-05-11T15:00:57.520Z,99287.53
2023-05-11T15:02:31.048Z,99309.66
2023-05-11T15:04:04.577Z,99305.25
2023-05-11T15:05:38.272Z,99307.16
2023-05-11T15:07:11.361Z,99302.06
2023-05-11T15:08:44.802Z,99304.75
2023-05-11T15:10:18.183Z,99301.53
2023-05-11T15:11:51.374Z,99303.38
2023-05-11T15:13:26.056Z,99293.25
2023-05-11T15:14:59.450Z,99306.78
2023-05-11T15:16:32.900Z,99296.06
2023-05-11T15:18:06.248Z,99297.78
2023-05-11T15:19:39.495Z,99294.34
2023-05-11T15:21:12.706Z,99299.41
2023-05-11T15:22:46.267Z,99297.16
2023-05-11T15:24:19.771Z,99297.63
2023-05-11T15:25:52.981Z,99295.38
2023-05-11T15:27:26.259Z,99303.84
2023-05-11T15:29:00.936Z,99305.59
2023-05-11T15:30:34.260Z,99304.72
2023-05-11T15:32:08.286Z,99309.03
2023-05-11T15:33:41.583Z,99306.75
2023-05-11T15:35:17.008Z,99309.00
2023-05-11T15:36:50.415Z,99310.69
2023-05-11T15:38:23.568Z,99321.44
2023-05-11T15:39:56.754Z,99324.28
2023-05-11T15:41:29.909Z,99324.03
2023-05-11T15:43:03.481Z,99318.44
2023-05-11T15:44:37.996Z,99322.72
2023-05-11T15:46:11.321Z,99329.38
2023-05-11T15:47:46.094Z,99329.81
2023-05-11T15:49:19.289Z,99323.91
2023-05-11T15:50:52.392Z,99333.66
2023-05-11T15:52:25.614Z,99320.50
2023-05-11T15:53:58.773Z,99322.53
2023-05-11T15:55:32.035Z,99324.28
2023-05-11T15:57:05.667Z,99327.38
2023-05-11T15:58:38.868Z,99322.31
2023-05-11T16:00:14.741Z,99325.13
2023-05-11T16:01:48.238Z,99326.19
2023-05-11T16:03:21.592Z,99329.63
2023-05-11T16:04:54.873Z,99327.47
2023-05-11T16:06:28.953Z,99337.47
2023-05-11T16:08:02.134Z,99343.03
2023-05-11T16:09:35.383Z,99331.53
2023-05-11T16:11:07.682Z,99334.22
2023-05-11T16:12:41.043Z,99334.69
2023-05-11T16:14:13.284Z,99327.47
2023-05-11T16:15:47.875Z,99336.16
2023-05-11T16:17:21.238Z,99334.00
2023-05-11T16:18:54.627Z,99344.81
2023-05-11T16:20:28.691Z,99347.41
2023-05-11T16:22:01.865Z,99339.47
2023-05-11T16:23:35.173Z,99332.41
2023-05-11T16:25:09.338Z,99335.72
2023-05-11T16:26:42.747Z,99337.31
2023-05-11T16:28:15.946Z,99344.56
2023-05-11T16:29:49.189Z,99344.31
2023-05-11T16:31:24.106Z,99344.50
2023-05-11T16:32:57.641Z,99336.75
2023-05-11T16:34:30.855Z,99352.72
2023-05-11T16:36:04.231Z,99357.13
2023-05-11T16:37:37.434Z,99369.28
2023-05-11T16:39:11.243Z,99356.31
2023-05-11T16:40:44.468Z,99357.00
2023-05-11T16:42:18.029Z,99357.50
2023-05-11T16:43:52.160Z,99357.69
2023-05-11T16:45:25.303Z,99363.44
2023-05-11T16:47:01.360Z,99359.75
2023-05-11T16:48:35.043Z,99362.81
2023-05-11T16:50:08.838Z,99359.19
2023-05-11T16:51:42.662Z,99353.28
2023-05-11T16:53:15.864Z,99360.88
2023-05-11T16:54:48.949Z,99366.94
2023-05-11T16:56:22.257Z,99367.25
2023-05-11T16:57:55.417Z,99359.25
2023-05-11T16:59:28.659Z,99369.53
2023-05-11T17:01:00.796Z,99372.00
2023-05-11T17:02:35.721Z,99365.03
2023-05-11T17:04:08.922Z,99368.75
2023-05-11T17:05:42.231Z,99376.69
2023-05-11T17:07:16.170Z,99370.88
2023-05-11T17:08:49.857Z,99380.88
2023-05-11T17:10:23.637Z,99378.88
2023-05-11T17:11:56.817Z,99374.47
2023-05-11T17:13:29.964Z,99371.03
2023-05-11T17:15:03.681Z,99376.94
2023-05-11T17:16:37.359Z,99379.78
2023-05-11T17:18:12.049Z,99369.88
2023-05-11T17:19:45.237Z,99370.59
2023-05-11T17:21:18.411Z,99379.53
2023-05-11T17:22:51.541Z,99376.72
2023-05-11T17:24:24.878Z,99371.91
2023-05-11T17:26:00.997Z,99371.41
2023-05-11T17:27:35.807Z,99366.75
2023-05-11T17:29:09.489Z,99351.13
2023-05-11T17:30:48.474Z,99365.75
2023-05-11T17:32:23.457Z,99371.25
2023-05-11T17:33:58.486Z,99365.59
2023-05-11T17:35:32.069Z,99373.50
2023-05-11T17:37:05.455Z,99374.88
2023-05-11T17:38:38.896Z,99370.59
2023-05-11T17:40:12.976Z,99378.34
2023-05-11T17:41:46.199Z,99374.44
2023-05-11T17:43:19.332Z,99382.03
2023-05-11T17:44:52.688Z,99390.25
2023-05-11T17:46:26.380Z,99382.41
2023-05-11T17:47:59.845Z,99393.19
2023-05-11T17:49:34.707Z,99387.59
2023-05-11T17:51:07.899Z,99391.34
2023-05-11T17:52:41.951Z,99396.97
2023-05-11T17:54:15.110Z,99402.63
2023-05-11T17:55:48.181Z,99399.19
2023-05-11T17:57:23.413Z,99402.25
2023-05-11T17:58:56.563Z,99408.75
2023-05-11T18:00:29.685Z,99401.88
2023-05-11T18:02:03.382Z,99413.56
2023-05-11T18:03:36.796Z,99403.94
2023-05-11T18:05:11.897Z,99401.41
2023-05-11T18:06:45.856Z,99405.19
2023-05-11T18:08:18.992Z,99409.88
2023-05-11T18:09:52.174Z,99403.94
2023-05-11T18:11:26.297Z,99397.03
2023-05-11T18:12:58.498Z,99397.41
2023-05-11T18:14:31.875Z,99407.22
2023-05-11T18:16:05.437Z,99408.25
2023-05-11T18:17:38.675Z,99416.47
2023-05-11T18:19:11.878Z,99423.66
2023-05-11T18:20:46.653Z,99425.53
2023-05-11T18:22:19.804Z,99430.88
2023-05-11T18:23:52.974Z,99424.13
2023-05-11T18:25:27.980Z,99427.72
2023-05-11T18:27:02.327Z,99433.19
2023-05-11T18:28:35.463Z,99432.56
2023-05-11T18:30:10.164Z,99432.47
2023-05-11T18:31:43.401Z,99440.56
2023-05-11T18:33:16.852Z,99444.28
2023-05-11T18:34:50.090Z,99447.75
2023-05-11T18:36:24.882Z,99445.38
2023-05-11T18:37:59.562Z,99446.47
2023-05-11T18:39:33.028Z,99447.69
2023-05-11T18:41:06.542Z,99452.22
2023-05-11T18:42:39.690Z,99450.63
2023-05-11T18:44:14.152Z,99450.91